sensor_id;sensor_type;location;lat;lon;timestamp;P1;durP1;ratioP1;P2;durP2;ratioP2
7029;SDS011;3556;53.500;10.176;2022-08-03T00:01:39;5.77;;;5.47;;
7029;SDS011;3556;53.500;10.176;2022-08-03T00:04:06;5.60;;;5.30;;
7029;SDS011;3556;53.500;10.176;2022-08-03T00:06:33;4.80;;;4.60;;
7029;SDS011;3556;53.500;10.176;2022-08-03T00:08:58;5.17;;;4.87;;
7029;SDS011;3556;53.500;10.176;2022-08-03T00:11:24;5.33;;;5.10;;
7029;SDS011;3556;53.500;10.176;2022-08-03T00:13:50;4.80;;;4.70;;
7029;SDS011;3556;53.500;10.176;2022-08-03T00:16:16;5.50;;;4.90;;
7029;SDS011;3556;53.500;10.176;2022-08-03T00:18:42;5.23;;;5.03;;
7029;SDS011;3556;53.500;10.176;2022-08-03T00:21:08;5.13;;;4.83;;
7029;SDS011;3556;53.500;10.176;2022-08-03T00:23:34;5.00;;;4.67;;
7029;SDS011;3556;53.500;10.176;2022-08-03T00:26:00;4.53;;;4.43;;
7029;SDS011;3556;53.500;10.176;2022-08-03T00:28:25;8.83;;;5.20;;
7029;SDS011;3556;53.500;10.176;2022-08-03T00:30:51;4.93;;;4.73;;
7029;SDS011;3556;53.500;10.176;2022-08-03T00:33:17;5.07;;;4.77;;
7029;SDS011;3556;53.500;10.176;2022-08-03T00:35:43;4.30;;;4.20;;
7029;SDS011;3556;53.500;10.176;2022-08-03T00:38:09;5.50;;;5.30;;
7029;SDS011;3556;53.500;10.176;2022-08-03T00:40:34;5.63;;;5.50;;
7029;SDS011;3556;53.500;10.176;2022-08-03T00:43:01;5.40;;;5.20;;
7029;SDS011;3556;53.500;10.176;2022-08-03T00:45:29;5.13;;;4.63;;
7029;SDS011;3556;53.500;10.176;2022-08-03T00:47:57;5.13;;;4.63;;
7029;SDS011;3556;53.500;10.176;2022-08-03T00:50:24;4.63;;;4.50;;
7029;SDS011;3556;53.500;10.176;2022-08-03T00:52:52;5.40;;;5.30;;
7029;SDS011;3556;53.500;10.176;2022-08-03T00:55:19;5.23;;;4.97;;
7029;SDS011;3556;53.500;10.176;2022-08-03T00:57:45;5.20;;;5.10;;
7029;SDS011;3556;53.500;10.176;2022-08-03T01:00:12;4.80;;;4.70;;
7029;SDS011;3556;53.500;10.176;2022-08-03T01:02:40;5.50;;;5.00;;
7029;SDS011;3556;53.500;10.176;2022-08-03T01:05:06;4.63;;;4.50;;
7029;SDS011;3556;53.500;10.176;2022-08-03T01:11:28;5.20;;;5.00;;
7029;SDS011;3556;53.500;10.176;2022-08-03T01:18:38;4.90;;;4.80;;
7029;SDS011;3556;53.500;10.176;2022-08-03T01:21:13;5.50;;;5.40;;
7029;SDS011;3556;53.500;10.176;2022-08-03T01:32:15;5.37;;;5.17;;
7029;SDS011;3556;53.500;10.176;2022-08-03T01:34:50;5.37;;;5.00;;
7029;SDS011;3556;53.500;10.176;2022-08-03T01:37:34;4.80;;;4.60;;
7029;SDS011;3556;53.500;10.176;2022-08-03T01:40:03;5.00;;;4.80;;
7029;SDS011;3556;53.500;10.176;2022-08-03T01:42:30;5.43;;;5.03;;
7029;SDS011;3556;53.500;10.176;2022-08-03T01:44:58;5.40;;;5.20;;
7029;SDS011;3556;53.500;10.176;2022-08-03T01:47:26;5.53;;;5.33;;
7029;SDS011;3556;53.500;10.176;2022-08-03T01:49:53;4.93;;;4.63;;
7029;SDS011;3556;53.500;10.176;2022-08-03T01:52:21;5.60;;;5.30;;
7029;SDS011;3556;53.500;10.176;2022-08-03T01:54:50;5.50;;;5.30;;
7029;SDS011;3556;53.500;10.176;2022-08-03T01:57:17;5.37;;;5.07;;
7029;SDS011;3556;53.500;10.176;2022-08-03T01:59:45;5.17;;;4.97;;
7029;SDS011;3556;53.500;10.176;2022-08-03T02:02:13;4.90;;;4.80;;
7029;SDS011;3556;53.500;10.176;2022-08-03T02:04:41;5.70;;;5.17;;
7029;SDS011;3556;53.500;10.176;2022-08-03T02:07:08;5.43;;;5.23;;
7029;SDS011;3556;53.500;10.176;2022-08-03T02:09:36;5.50;;;5.30;;
7029;SDS011;3556;53.500;10.176;2022-08-03T02:12:06;5.57;;;5.10;;
7029;SDS011;3556;53.500;10.176;2022-08-03T02:14:34;6.40;;;4.93;;
7029;SDS011;3556;53.500;10.176;2022-08-03T02:17:00;5.17;;;4.90;;
7029;SDS011;3556;53.500;10.176;2022-08-03T02:19:27;5.30;;;5.00;;
7029;SDS011;3556;53.500;10.176;2022-08-03T02:21:54;5.57;;;5.17;;
7029;SDS011;3556;53.500;10.176;2022-08-03T02:24:21;5.70;;;5.50;;
7029;SDS011;3556;53.500;10.176;2022-08-03T02:26:47;5.80;;;5.60;;
7029;SDS011;3556;53.500;10.176;2022-08-03T02:29:20;6.00;;;5.80;;
7029;SDS011;3556;53.500;10.176;2022-08-03T02:31:49;5.90;;;5.70;;
7029;SDS011;3556;53.500;10.176;2022-08-03T02:34:16;6.30;;;6.03;;
7029;SDS011;3556;53.500;10.176;2022-08-03T02:36:45;6.20;;;5.83;;
7029;SDS011;3556;53.500;10.176;2022-08-03T02:39:16;5.17;;;5.07;;
7029;SDS011;3556;53.500;10.176;2022-08-03T02:41:50;6.40;;;6.10;;
7029;SDS011;3556;53.500;10.176;2022-08-03T02:44:21;6.33;;;6.00;;
7029;SDS011;3556;53.500;10.176;2022-08-03T02:46:52;6.40;;;6.20;;
7029;SDS011;3556;53.500;10.176;2022-08-03T02:49:21;5.93;;;5.73;;
7029;SDS011;3556;53.500;10.176;2022-08-03T02:51:48;5.53;;;5.43;;
7029;SDS011;3556;53.500;10.176;2022-08-03T02:54:17;5.90;;;5.70;;
7029;SDS011;3556;53.500;10.176;2022-08-03T02:56:44;5.60;;;5.50;;
7029;SDS011;3556;53.500;10.176;2022-08-03T02:59:10;6.30;;;5.80;;
7029;SDS011;3556;53.500;10.176;2022-08-03T03:01:37;5.50;;;5.30;;
7029;SDS011;3556;53.500;10.176;2022-08-03T03:04:04;6.10;;;5.90;;
7029;SDS011;3556;53.500;10.176;2022-08-03T03:06:31;5.87;;;5.67;;
7029;SDS011;3556;53.500;10.176;2022-08-03T03:08:57;6.27;;;6.07;;
7029;SDS011;3556;53.500;10.176;2022-08-03T03:11:24;5.70;;;5.40;;
7029;SDS011;3556;53.500;10.176;2022-08-03T03:13:51;5.43;;;5.17;;
7029;SDS011;3556;53.500;10.176;2022-08-03T03:16:17;6.37;;;6.17;;
7029;SDS011;3556;53.500;10.176;2022-08-03T03:18:44;5.50;;;5.30;;
7029;SDS011;3556;53.500;10.176;2022-08-03T03:21:12;6.60;;;6.40;;
7029;SDS011;3556;53.500;10.176;2022-08-03T03:23:40;6.40;;;6.10;;
7029;SDS011;3556;53.500;10.176;2022-08-03T03:26:06;5.80;;;5.70;;
7029;SDS011;3556;53.500;10.176;2022-08-03T03:28:33;6.00;;;5.80;;
7029;SDS011;3556;53.500;10.176;2022-08-03T03:31:03;5.60;;;5.50;;
7029;SDS011;3556;53.500;10.176;2022-08-03T03:33:30;6.33;;;6.13;;
7029;SDS011;3556;53.500;10.176;2022-08-03T03:35:57;6.70;;;6.40;;
7029;SDS011;3556;53.500;10.176;2022-08-03T03:38:23;6.43;;;6.13;;
7029;SDS011;3556;53.500;10.176;2022-08-03T03:40:48;5.87;;;5.47;;
7029;SDS011;3556;53.500;10.176;2022-08-03T03:43:14;5.40;;;5.30;;
7029;SDS011;3556;53.500;10.176;2022-08-03T03:45:42;5.70;;;5.50;;
7029;SDS011;3556;53.500;10.176;2022-08-03T03:48:09;7.43;;;7.03;;
7029;SDS011;3556;53.500;10.176;2022-08-03T03:50:35;7.03;;;6.63;;
7029;SDS011;3556;53.500;10.176;2022-08-03T03:53:02;7.70;;;7.20;;
7029;SDS011;3556;53.500;10.176;2022-08-03T03:55:28;7.30;;;7.00;;
7029;SDS011;3556;53.500;10.176;2022-08-03T03:57:54;6.97;;;6.60;;
7029;SDS011;3556;53.500;10.176;2022-08-03T04:00:20;6.53;;;6.33;;
7029;SDS011;3556;53.500;10.176;2022-08-03T04:02:46;7.27;;;6.97;;
7029;SDS011;3556;53.500;10.176;2022-08-03T04:05:12;7.93;;;7.50;;
7029;SDS011;3556;53.500;10.176;2022-08-03T04:08:02;7.63;;;7.27;;
7029;SDS011;3556;53.500;10.176;2022-08-03T04:11:01;7.77;;;7.40;;
7029;SDS011;3556;53.500;10.176;2022-08-03T04:13:36;6.97;;;6.77;;
7029;SDS011;3556;53.500;10.176;2022-08-03T04:16:05;7.37;;;6.77;;
7029;SDS011;3556;53.500;10.176;2022-08-03T04:18:33;9.20;;;7.10;;
7029;SDS011;3556;53.500;10.176;2022-08-03T04:21:01;9.00;;;8.30;;
7029;SDS011;3556;53.500;10.176;2022-08-03T04:23:30;8.10;;;7.50;;
7029;SDS011;3556;53.500;10.176;2022-08-03T04:25:58;8.10;;;7.70;;
7029;SDS011;3556;53.500;10.176;2022-08-03T04:28:27;8.53;;;7.70;;
7029;SDS011;3556;53.500;10.176;2022-08-03T04:30:54;9.27;;;8.53;;
7029;SDS011;3556;53.500;10.176;2022-08-03T04:33:21;8.83;;;8.30;;
7029;SDS011;3556;53.500;10.176;2022-08-03T04:35:50;8.53;;;7.80;;
7029;SDS011;3556;53.500;10.176;2022-08-03T04:38:19;12.00;;;8.10;;
7029;SDS011;3556;53.500;10.176;2022-08-03T04:40:47;7.97;;;7.43;;
7029;SDS011;3556;53.500;10.176;2022-08-03T04:43:13;8.33;;;7.77;;
7029;SDS011;3556;53.500;10.176;2022-08-03T04:45:40;8.60;;;7.80;;
7029;SDS011;3556;53.500;10.176;2022-08-03T04:48:07;8.70;;;7.97;;
7029;SDS011;3556;53.500;10.176;2022-08-03T04:50:33;9.23;;;8.33;;
7029;SDS011;3556;53.500;10.176;2022-08-03T04:52:59;8.33;;;7.70;;
7029;SDS011;3556;53.500;10.176;2022-08-03T04:55:29;11.10;;;7.90;;
7029;SDS011;3556;53.500;10.176;2022-08-03T04:57:56;8.20;;;7.80;;
7029;SDS011;3556;53.500;10.176;2022-08-03T05:00:23;8.60;;;7.87;;
7029;SDS011;3556;53.500;10.176;2022-08-03T05:02:49;7.60;;;7.27;;
7029;SDS011;3556;53.500;10.176;2022-08-03T05:05:15;7.43;;;7.00;;
7029;SDS011;3556;53.500;10.176;2022-08-03T05:07:41;6.60;;;6.30;;
7029;SDS011;3556;53.500;10.176;2022-08-03T05:10:09;7.20;;;6.90;;
7029;SDS011;3556;53.500;10.176;2022-08-03T05:12:35;8.03;;;7.50;;
7029;SDS011;3556;53.500;10.176;2022-08-03T05:15:01;7.60;;;7.30;;
7029;SDS011;3556;53.500;10.176;2022-08-03T05:17:28;11.53;;;8.17;;
7029;SDS011;3556;53.500;10.176;2022-08-03T05:19:54;7.83;;;7.23;;
7029;SDS011;3556;53.500;10.176;2022-08-03T05:22:20;7.53;;;7.03;;
7029;SDS011;3556;53.500;10.176;2022-08-03T05:24:46;9.57;;;8.60;;
7029;SDS011;3556;53.500;10.176;2022-08-03T05:27:12;9.40;;;8.73;;
7029;SDS011;3556;53.500;10.176;2022-08-03T05:29:44;8.70;;;8.20;;
7029;SDS011;3556;53.500;10.176;2022-08-03T05:32:10;7.83;;;7.43;;
7029;SDS011;3556;53.500;10.176;2022-08-03T05:34:35;7.23;;;6.97;;
7029;SDS011;3556;53.500;10.176;2022-08-03T05:37:01;8.93;;;8.33;;
7029;SDS011;3556;53.500;10.176;2022-08-03T05:39:27;8.17;;;7.50;;
7029;SDS011;3556;53.500;10.176;2022-08-03T05:41:52;8.40;;;7.90;;
7029;SDS011;3556;53.500;10.176;2022-08-03T05:44:18;8.30;;;7.80;;
7029;SDS011;3556;53.500;10.176;2022-08-03T05:46:44;8.53;;;7.90;;
7029;SDS011;3556;53.500;10.176;2022-08-03T05:49:09;8.57;;;7.53;;
7029;SDS011;3556;53.500;10.176;2022-08-03T05:51:35;7.60;;;7.13;;
7029;SDS011;3556;53.500;10.176;2022-08-03T05:54:01;7.20;;;6.90;;
7029;SDS011;3556;53.500;10.176;2022-08-03T05:56:27;8.67;;;7.23;;
7029;SDS011;3556;53.500;10.176;2022-08-03T05:58:52;8.73;;;7.77;;
7029;SDS011;3556;53.500;10.176;2022-08-03T06:01:19;7.43;;;7.03;;
7029;SDS011;3556;53.500;10.176;2022-08-03T06:03:48;7.80;;;7.37;;
7029;SDS011;3556;53.500;10.176;2022-08-03T06:06:14;8.10;;;7.53;;
7029;SDS011;3556;53.500;10.176;2022-08-03T06:08:41;8.27;;;7.40;;
7029;SDS011;3556;53.500;10.176;2022-08-03T06:11:07;7.30;;;6.90;;
7029;SDS011;3556;53.500;10.176;2022-08-03T06:13:33;6.90;;;6.40;;
7029;SDS011;3556;53.500;10.176;2022-08-03T06:16:00;6.87;;;6.53;;
7029;SDS011;3556;53.500;10.176;2022-08-03T06:18:26;6.93;;;6.53;;
7029;SDS011;3556;53.500;10.176;2022-08-03T06:20:51;7.03;;;6.63;;
7029;SDS011;3556;53.500;10.176;2022-08-03T06:23:17;7.37;;;6.40;;
7029;SDS011;3556;53.500;10.176;2022-08-03T06:25:44;6.43;;;6.23;;
7029;SDS011;3556;53.500;10.176;2022-08-03T06:28:09;7.17;;;6.77;;
7029;SDS011;3556;53.500;10.176;2022-08-03T06:30:36;6.87;;;6.23;;
7029;SDS011;3556;53.500;10.176;2022-08-03T06:33:02;6.50;;;5.90;;
7029;SDS011;3556;53.500;10.176;2022-08-03T06:35:27;7.03;;;6.63;;
7029;SDS011;3556;53.500;10.176;2022-08-03T06:37:53;5.87;;;5.57;;
7029;SDS011;3556;53.500;10.176;2022-08-03T06:40:19;6.00;;;5.70;;
7029;SDS011;3556;53.500;10.176;2022-08-03T06:42:54;6.10;;;5.70;;
7029;SDS011;3556;53.500;10.176;2022-08-03T06:45:20;6.47;;;6.23;;
7029;SDS011;3556;53.500;10.176;2022-08-03T06:47:46;6.03;;;5.73;;
7029;SDS011;3556;53.500;10.176;2022-08-03T06:50:11;6.20;;;6.00;;
7029;SDS011;3556;53.500;10.176;2022-08-03T06:52:37;6.53;;;6.33;;
7029;SDS011;3556;53.500;10.176;2022-08-03T06:55:03;5.80;;;5.60;;
7029;SDS011;3556;53.500;10.176;2022-08-03T06:57:29;6.23;;;5.90;;
7029;SDS011;3556;53.500;10.176;2022-08-03T06:59:55;6.80;;;6.30;;
7029;SDS011;3556;53.500;10.176;2022-08-03T07:02:25;5.83;;;5.63;;
7029;SDS011;3556;53.500;10.176;2022-08-03T07:04:52;14.93;;;6.50;;
7029;SDS011;3556;53.500;10.176;2022-08-03T07:07:18;6.17;;;5.77;;
7029;SDS011;3556;53.500;10.176;2022-08-03T07:09:44;6.30;;;6.10;;
7029;SDS011;3556;53.500;10.176;2022-08-03T07:12:10;5.87;;;5.57;;
7029;SDS011;3556;53.500;10.176;2022-08-03T07:14:36;5.70;;;5.20;;
7029;SDS011;3556;53.500;10.176;2022-08-03T07:17:01;5.97;;;5.70;;
7029;SDS011;3556;53.500;10.176;2022-08-03T07:19:27;4.83;;;4.73;;
7029;SDS011;3556;53.500;10.176;2022-08-03T07:21:52;5.77;;;5.47;;
7029;SDS011;3556;53.500;10.176;2022-08-03T07:24:18;5.13;;;5.03;;
7029;SDS011;3556;53.500;10.176;2022-08-03T07:26:43;5.67;;;5.37;;
7029;SDS011;3556;53.500;10.176;2022-08-03T07:29:09;7.57;;;5.60;;
7029;SDS011;3556;53.500;10.176;2022-08-03T07:31:35;5.30;;;5.00;;
7029;SDS011;3556;53.500;10.176;2022-08-03T07:34:00;5.50;;;5.10;;
7029;SDS011;3556;53.500;10.176;2022-08-03T07:36:26;4.73;;;4.53;;
7029;SDS011;3556;53.500;10.176;2022-08-03T07:38:51;5.37;;;5.07;;
7029;SDS011;3556;53.500;10.176;2022-08-03T07:41:17;5.40;;;5.10;;
7029;SDS011;3556;53.500;10.176;2022-08-03T07:43:42;4.73;;;4.40;;
7029;SDS011;3556;53.500;10.176;2022-08-03T07:46:08;5.07;;;4.77;;
7029;SDS011;3556;53.500;10.176;2022-08-03T07:48:34;4.80;;;4.60;;
7029;SDS011;3556;53.500;10.176;2022-08-03T07:50:59;4.77;;;4.20;;
7029;SDS011;3556;53.500;10.176;2022-08-03T07:53:27;4.73;;;4.43;;
7029;SDS011;3556;53.500;10.176;2022-08-03T07:55:52;4.50;;;4.30;;
7029;SDS011;3556;53.500;10.176;2022-08-03T07:58:18;6.40;;;4.20;;
7029;SDS011;3556;53.500;10.176;2022-08-03T08:00:44;3.90;;;3.77;;
7029;SDS011;3556;53.500;10.176;2022-08-03T08:03:10;5.63;;;3.90;;
7029;SDS011;3556;53.500;10.176;2022-08-03T08:05:36;4.50;;;3.57;;
7029;SDS011;3556;53.500;10.176;2022-08-03T08:08:02;3.70;;;3.50;;
7029;SDS011;3556;53.500;10.176;2022-08-03T08:10:28;3.40;;;3.30;;
7029;SDS011;3556;53.500;10.176;2022-08-03T08:12:55;3.73;;;3.43;;
7029;SDS011;3556;53.500;10.176;2022-08-03T08:15:21;6.00;;;3.07;;
7029;SDS011;3556;53.500;10.176;2022-08-03T08:17:48;9.13;;;3.00;;
7029;SDS011;3556;53.500;10.176;2022-08-03T08:20:20;3.87;;;3.43;;
7029;SDS011;3556;53.500;10.176;2022-08-03T08:22:51;8.23;;;2.83;;
7029;SDS011;3556;53.500;10.176;2022-08-03T08:25:16;5.83;;;3.40;;
7029;SDS011;3556;53.500;10.176;2022-08-03T08:27:46;3.73;;;2.93;;
7029;SDS011;3556;53.500;10.176;2022-08-03T08:30:13;4.30;;;3.07;;
7029;SDS011;3556;53.500;10.176;2022-08-03T08:32:40;3.10;;;3.00;;
7029;SDS011;3556;53.500;10.176;2022-08-03T08:35:06;3.33;;;3.13;;
7029;SDS011;3556;53.500;10.176;2022-08-03T08:37:33;2.40;;;2.30;;
7029;SDS011;3556;53.500;10.176;2022-08-03T08:39:59;2.90;;;2.80;;
7029;SDS011;3556;53.500;10.176;2022-08-03T08:42:25;2.93;;;2.70;;
7029;SDS011;3556;53.500;10.176;2022-08-03T08:44:50;6.97;;;2.57;;
7029;SDS011;3556;53.500;10.176;2022-08-03T08:47:21;2.60;;;2.50;;
7029;SDS011;3556;53.500;10.176;2022-08-03T08:49:51;4.20;;;2.60;;
7029;SDS011;3556;53.500;10.176;2022-08-03T08:52:18;2.60;;;2.50;;
7029;SDS011;3556;53.500;10.176;2022-08-03T08:54:49;2.70;;;2.50;;
7029;SDS011;3556;53.500;10.176;2022-08-03T08:57:19;2.50;;;2.30;;
7029;SDS011;3556;53.500;10.176;2022-08-03T08:59:48;2.60;;;2.50;;
7029;SDS011;3556;53.500;10.176;2022-08-03T09:02:13;3.00;;;2.63;;
7029;SDS011;3556;53.500;10.176;2022-08-03T09:04:39;2.53;;;2.33;;
7029;SDS011;3556;53.500;10.176;2022-08-03T09:07:05;3.10;;;2.90;;
7029;SDS011;3556;53.500;10.176;2022-08-03T09:09:31;6.03;;;2.70;;
7029;SDS011;3556;53.500;10.176;2022-08-03T09:11:57;2.60;;;2.40;;
7029;SDS011;3556;53.500;10.176;2022-08-03T09:14:22;2.43;;;2.23;;
7029;SDS011;3556;53.500;10.176;2022-08-03T09:16:55;5.30;;;2.23;;
7029;SDS011;3556;53.500;10.176;2022-08-03T09:19:31;2.80;;;2.23;;
7029;SDS011;3556;53.500;10.176;2022-08-03T09:22:08;6.60;;;2.23;;
7029;SDS011;3556;53.500;10.176;2022-08-03T09:24:35;5.60;;;2.27;;
7029;SDS011;3556;53.500;10.176;2022-08-03T09:27:01;2.10;;;2.00;;
7029;SDS011;3556;53.500;10.176;2022-08-03T09:29:31;3.13;;;2.00;;
7029;SDS011;3556;53.500;10.176;2022-08-03T09:32:01;2.87;;;2.13;;
7029;SDS011;3556;53.500;10.176;2022-08-03T09:34:28;2.00;;;1.90;;
7029;SDS011;3556;53.500;10.176;2022-08-03T09:36:54;4.53;;;2.30;;
7029;SDS011;3556;53.500;10.176;2022-08-03T09:39:25;2.83;;;2.10;;
7029;SDS011;3556;53.500;10.176;2022-08-03T09:44:36;7.70;;;2.43;;
7029;SDS011;3556;53.500;10.176;2022-08-03T09:47:07;2.53;;;2.17;;
7029;SDS011;3556;53.500;10.176;2022-08-03T09:49:34;3.00;;;2.27;;
7029;SDS011;3556;53.500;10.176;2022-08-03T09:52:01;2.57;;;2.37;;
7029;SDS011;3556;53.500;10.176;2022-08-03T09:54:40;6.40;;;2.10;;
7029;SDS011;3556;53.500;10.176;2022-08-03T09:57:06;2.43;;;2.20;;
7029;SDS011;3556;53.500;10.176;2022-08-03T09:59:32;5.53;;;1.90;;
7029;SDS011;3556;53.500;10.176;2022-08-03T10:01:58;5.00;;;2.40;;
7029;SDS011;3556;53.500;10.176;2022-08-03T10:04:24;2.73;;;2.47;;
7029;SDS011;3556;53.500;10.176;2022-08-03T10:07:09;2.33;;;2.23;;
7029;SDS011;3556;53.500;10.176;2022-08-03T10:09:36;5.13;;;2.27;;
7029;SDS011;3556;53.500;10.176;2022-08-03T10:12:08;6.90;;;2.40;;
7029;SDS011;3556;53.500;10.176;2022-08-03T10:14:39;2.40;;;2.30;;
7029;SDS011;3556;53.500;10.176;2022-08-03T10:17:06;5.97;;;2.57;;
7029;SDS011;3556;53.500;10.176;2022-08-03T10:19:33;3.30;;;2.40;;
7029;SDS011;3556;53.500;10.176;2022-08-03T10:22:33;7.50;;;2.70;;
7029;SDS011;3556;53.500;10.176;2022-08-03T10:24:52;7.63;;;2.37;;
7029;SDS011;3556;53.500;10.176;2022-08-03T10:27:23;3.20;;;2.90;;
7029;SDS011;3556;53.500;10.176;2022-08-03T10:29:54;3.60;;;2.27;;
7029;SDS011;3556;53.500;10.176;2022-08-03T10:32:27;7.20;;;2.80;;
7029;SDS011;3556;53.500;10.176;2022-08-03T10:35:24;5.23;;;2.20;;
7029;SDS011;3556;53.500;10.176;2022-08-03T10:40:18;2.47;;;2.10;;
7029;SDS011;3556;53.500;10.176;2022-08-03T10:42:46;3.70;;;2.50;;
7029;SDS011;3556;53.500;10.176;2022-08-03T10:45:19;6.77;;;2.30;;
7029;SDS011;3556;53.500;10.176;2022-08-03T10:47:47;8.10;;;2.20;;
7029;SDS011;3556;53.500;10.176;2022-08-03T10:50:15;2.77;;;2.57;;
7029;SDS011;3556;53.500;10.176;2022-08-03T10:52:52;3.00;;;2.80;;
7029;SDS011;3556;53.500;10.176;2022-08-03T10:55:55;7.03;;;2.37;;
7029;SDS011;3556;53.500;10.176;2022-08-03T11:01:08;7.90;;;2.20;;
7029;SDS011;3556;53.500;10.176;2022-08-03T11:04:13;6.27;;;2.90;;
7029;SDS011;3556;53.500;10.176;2022-08-03T11:06:24;5.13;;;2.70;;
7029;SDS011;3556;53.500;10.176;2022-08-03T11:11:38;9.60;;;2.77;;
7029;SDS011;3556;53.500;10.176;2022-08-03T11:16:37;7.13;;;2.50;;
7029;SDS011;3556;53.500;10.176;2022-08-03T11:19:11;5.57;;;2.50;;
7029;SDS011;3556;53.500;10.176;2022-08-03T11:24:55;3.57;;;2.40;;
7029;SDS011;3556;53.500;10.176;2022-08-03T11:27:21;4.87;;;2.47;;
7029;SDS011;3556;53.500;10.176;2022-08-03T11:35:20;4.70;;;2.57;;
7029;SDS011;3556;53.500;10.176;2022-08-03T11:46:02;6.90;;;2.40;;
7029;SDS011;3556;53.500;10.176;2022-08-03T11:48:38;6.60;;;1.90;;
7029;SDS011;3556;53.500;10.176;2022-08-03T11:51:26;4.20;;;2.17;;
7029;SDS011;3556;53.500;10.176;2022-08-03T11:53:57;2.00;;;1.90;;
7029;SDS011;3556;53.500;10.176;2022-08-03T11:56:28;3.93;;;2.20;;
7029;SDS011;3556;53.500;10.176;2022-08-03T11:59:11;3.23;;;2.40;;
7029;SDS011;3556;53.500;10.176;2022-08-03T12:01:36;2.30;;;2.20;;
7029;SDS011;3556;53.500;10.176;2022-08-03T12:04:02;3.53;;;2.10;;
7029;SDS011;3556;53.500;10.176;2022-08-03T12:06:29;7.47;;;2.07;;
7029;SDS011;3556;53.500;10.176;2022-08-03T12:08:54;21.60;;;4.27;;
7029;SDS011;3556;53.500;10.176;2022-08-03T12:11:20;3.03;;;2.00;;
7029;SDS011;3556;53.500;10.176;2022-08-03T12:13:47;7.40;;;1.90;;
7029;SDS011;3556;53.500;10.176;2022-08-03T12:16:25;3.93;;;2.00;;
7029;SDS011;3556;53.500;10.176;2022-08-03T12:18:56;2.80;;;2.37;;
7029;SDS011;3556;53.500;10.176;2022-08-03T12:21:26;3.80;;;1.80;;
7029;SDS011;3556;53.500;10.176;2022-08-03T12:23:56;3.20;;;1.97;;
7029;SDS011;3556;53.500;10.176;2022-08-03T12:26:24;6.40;;;2.20;;
7029;SDS011;3556;53.500;10.176;2022-08-03T12:28:50;2.70;;;2.00;;
7029;SDS011;3556;53.500;10.176;2022-08-03T12:31:16;2.37;;;2.27;;
7029;SDS011;3556;53.500;10.176;2022-08-03T12:36:20;5.83;;;2.20;;
7029;SDS011;3556;53.500;10.176;2022-08-03T12:38:52;8.80;;;2.17;;
7029;SDS011;3556;53.500;10.176;2022-08-03T12:41:25;9.00;;;2.23;;
7029;SDS011;3556;53.500;10.176;2022-08-03T12:43:53;22.47;;;2.43;;
7029;SDS011;3556;53.500;10.176;2022-08-03T12:46:19;3.30;;;2.00;;
7029;SDS011;3556;53.500;10.176;2022-08-03T12:54:08;6.47;;;1.70;;
7029;SDS011;3556;53.500;10.176;2022-08-03T12:57:01;6.93;;;2.30;;
7029;SDS011;3556;53.500;10.176;2022-08-03T12:59:27;3.83;;;2.33;;
7029;SDS011;3556;53.500;10.176;2022-08-03T13:01:54;5.33;;;2.23;;
7029;SDS011;3556;53.500;10.176;2022-08-03T13:04:24;5.40;;;2.23;;
7029;SDS011;3556;53.500;10.176;2022-08-03T13:07:00;9.97;;;2.10;;
7029;SDS011;3556;53.500;10.176;2022-08-03T13:09:29;4.90;;;1.90;;
7029;SDS011;3556;53.500;10.176;2022-08-03T13:12:03;3.30;;;1.73;;
7029;SDS011;3556;53.500;10.176;2022-08-03T13:14:30;6.60;;;1.90;;
7029;SDS011;3556;53.500;10.176;2022-08-03T13:16:56;2.00;;;1.67;;
7029;SDS011;3556;53.500;10.176;2022-08-03T13:19:22;3.07;;;2.60;;
7029;SDS011;3556;53.500;10.176;2022-08-03T13:21:47;2.20;;;2.10;;
7029;SDS011;3556;53.500;10.176;2022-08-03T13:24:13;1.93;;;1.83;;
7029;SDS011;3556;53.500;10.176;2022-08-03T13:26:39;3.93;;;1.80;;
7029;SDS011;3556;53.500;10.176;2022-08-03T13:29:05;3.67;;;2.00;;
7029;SDS011;3556;53.500;10.176;2022-08-03T13:31:30;2.30;;;1.80;;
7029;SDS011;3556;53.500;10.176;2022-08-03T13:33:56;1.80;;;1.70;;
7029;SDS011;3556;53.500;10.176;2022-08-03T13:36:22;5.07;;;1.80;;
7029;SDS011;3556;53.500;10.176;2022-08-03T13:38:48;2.10;;;1.90;;
7029;SDS011;3556;53.500;10.176;2022-08-03T13:41:14;3.70;;;2.20;;
7029;SDS011;3556;53.500;10.176;2022-08-03T13:43:40;4.10;;;2.13;;
7029;SDS011;3556;53.500;10.176;2022-08-03T13:46:05;2.17;;;1.97;;
7029;SDS011;3556;53.500;10.176;2022-08-03T13:48:31;8.63;;;2.30;;
7029;SDS011;3556;53.500;10.176;2022-08-03T13:50:57;4.00;;;2.07;;
7029;SDS011;3556;53.500;10.176;2022-08-03T13:53:23;3.33;;;2.13;;
7029;SDS011;3556;53.500;10.176;2022-08-03T13:55:48;3.07;;;2.20;;
7029;SDS011;3556;53.500;10.176;2022-08-03T13:58:14;4.27;;;2.10;;
7029;SDS011;3556;53.500;10.176;2022-08-03T14:00:40;4.57;;;2.10;;
7029;SDS011;3556;53.500;10.176;2022-08-03T14:03:05;3.13;;;1.83;;
7029;SDS011;3556;53.500;10.176;2022-08-03T14:05:31;2.23;;;2.03;;
7029;SDS011;3556;53.500;10.176;2022-08-03T14:07:58;2.90;;;2.10;;
7029;SDS011;3556;53.500;10.176;2022-08-03T14:10:29;4.13;;;2.40;;
7029;SDS011;3556;53.500;10.176;2022-08-03T14:12:54;7.60;;;1.97;;
7029;SDS011;3556;53.500;10.176;2022-08-03T14:15:24;3.43;;;1.83;;
7029;SDS011;3556;53.500;10.176;2022-08-03T14:17:50;3.53;;;2.10;;
7029;SDS011;3556;53.500;10.176;2022-08-03T14:20:16;4.23;;;2.40;;
7029;SDS011;3556;53.500;10.176;2022-08-03T14:22:41;6.20;;;2.27;;
7029;SDS011;3556;53.500;10.176;2022-08-03T14:25:07;15.23;;;2.20;;
7029;SDS011;3556;53.500;10.176;2022-08-03T14:27:33;7.80;;;2.20;;
7029;SDS011;3556;53.500;10.176;2022-08-03T14:29:58;9.17;;;2.57;;
7029;SDS011;3556;53.500;10.176;2022-08-03T14:32:25;8.80;;;1.90;;
7029;SDS011;3556;53.500;10.176;2022-08-03T14:34:51;4.47;;;1.90;;
7029;SDS011;3556;53.500;10.176;2022-08-03T14:37:17;2.20;;;2.00;;
7029;SDS011;3556;53.500;10.176;2022-08-03T14:39:43;2.13;;;2.03;;
7029;SDS011;3556;53.500;10.176;2022-08-03T14:42:10;8.83;;;1.97;;
7029;SDS011;3556;53.500;10.176;2022-08-03T14:44:36;9.60;;;1.90;;
7029;SDS011;3556;53.500;10.176;2022-08-03T14:47:01;2.60;;;1.90;;
7029;SDS011;3556;53.500;10.176;2022-08-03T14:49:27;4.43;;;1.97;;
7029;SDS011;3556;53.500;10.176;2022-08-03T14:51:53;4.77;;;2.03;;
7029;SDS011;3556;53.500;10.176;2022-08-03T14:54:18;6.63;;;2.37;;
7029;SDS011;3556;53.500;10.176;2022-08-03T14:56:44;3.10;;;1.57;;
7029;SDS011;3556;53.500;10.176;2022-08-03T14:59:09;2.13;;;2.03;;
7029;SDS011;3556;53.500;10.176;2022-08-03T15:01:35;5.17;;;1.90;;
7029;SDS011;3556;53.500;10.176;2022-08-03T15:04:00;3.67;;;2.00;;
7029;SDS011;3556;53.500;10.176;2022-08-03T15:06:26;6.47;;;2.50;;
7029;SDS011;3556;53.500;10.176;2022-08-03T15:08:52;3.30;;;2.07;;
7029;SDS011;3556;53.500;10.176;2022-08-03T15:11:18;2.30;;;2.10;;
7029;SDS011;3556;53.500;10.176;2022-08-03T15:13:43;6.00;;;2.40;;
7029;SDS011;3556;53.500;10.176;2022-08-03T15:16:09;2.17;;;2.00;;
7029;SDS011;3556;53.500;10.176;2022-08-03T15:18:34;6.40;;;1.77;;
7029;SDS011;3556;53.500;10.176;2022-08-03T15:21:00;5.67;;;1.77;;
7029;SDS011;3556;53.500;10.176;2022-08-03T15:23:26;3.17;;;1.90;;
7029;SDS011;3556;53.500;10.176;2022-08-03T15:25:51;5.03;;;1.60;;
7029;SDS011;3556;53.500;10.176;2022-08-03T15:28:17;7.27;;;1.87;;
7029;SDS011;3556;53.500;10.176;2022-08-03T15:30:44;7.70;;;1.90;;
7029;SDS011;3556;53.500;10.176;2022-08-03T15:33:09;6.33;;;1.90;;
7029;SDS011;3556;53.500;10.176;2022-08-03T15:35:35;5.47;;;2.00;;
7029;SDS011;3556;53.500;10.176;2022-08-03T15:38:01;4.10;;;2.07;;
7029;SDS011;3556;53.500;10.176;2022-08-03T15:40:26;1.70;;;1.60;;
7029;SDS011;3556;53.500;10.176;2022-08-03T15:42:52;3.30;;;2.00;;
7029;SDS011;3556;53.500;10.176;2022-08-03T15:45:18;4.60;;;2.13;;
7029;SDS011;3556;53.500;10.176;2022-08-03T15:47:43;2.40;;;2.20;;
7029;SDS011;3556;53.500;10.176;2022-08-03T15:50:09;1.80;;;1.70;;
7029;SDS011;3556;53.500;10.176;2022-08-03T15:52:35;3.33;;;1.83;;
7029;SDS011;3556;53.500;10.176;2022-08-03T15:55:02;10.73;;;1.87;;
7029;SDS011;3556;53.500;10.176;2022-08-03T15:57:28;3.77;;;2.07;;
7029;SDS011;3556;53.500;10.176;2022-08-03T15:59:53;4.33;;;1.97;;